createdAt,value
2022-08-06T00:00:15.767Z,3.03
2022-08-06T00:02:42.660Z,2.67
2022-08-06T00:05:09.691Z,2.60
2022-08-06T00:07:47.983Z,2.67
2022-08-06T00:10:18.653Z,2.97
2022-08-06T00:12:48.279Z,2.80
2022-08-06T00:15:15.724Z,2.70
2022-08-06T00:17:47.074Z,2.87
2022-08-06T00:20:21.118Z,3.37
2022-08-06T00:22:53.245Z,2.50
2022-08-06T00:25:19.758Z,2.93
2022-08-06T00:27:51.398Z,2.87
2022-08-06T00:30:22.385Z,2.70
2022-08-06T00:32:52.146Z,2.77
2022-08-06T00:35:19.837Z,2.90
2022-08-06T00:37:54.819Z,2.63
2022-08-06T00:40:24.996Z,3.17
2022-08-06T00:42:51.722Z,2.87
2022-08-06T00:45:24.740Z,3.03
2022-08-06T00:48:02.189Z,3.77
2022-08-06T00:50:31.379Z,3.57
2022-08-06T00:52:58.492Z,3.57
2022-08-06T00:55:31.864Z,3.57
2022-08-06T00:58:02.364Z,3.50
2022-08-06T01:00:29.935Z,3.63
2022-08-06T01:02:57.217Z,3.77
2022-08-06T01:05:54.530Z,3.50
2022-08-06T01:08:10.771Z,3.60
2022-08-06T01:10:42.531Z,3.90
2022-08-06T01:13:23.371Z,3.60
2022-08-06T01:16:29.561Z,3.07
2022-08-06T01:19:20.694Z,3.97
2022-08-06T01:21:59.420Z,3.87
2022-08-06T01:24:40.691Z,4.50
2022-08-06T01:27:13.804Z,4.87
2022-08-06T01:29:43.035Z,3.77
2022-08-06T01:32:26.860Z,3.50
2022-08-06T01:34:56.997Z,3.03
2022-08-06T01:37:38.466Z,3.60
2022-08-06T01:40:09.090Z,3.57
2022-08-06T01:42:37.545Z,3.27
2022-08-06T01:45:05.766Z,3.40
2022-08-06T01:47:52.135Z,3.60
2022-08-06T01:50:27.918Z,2.70
2022-08-06T01:53:00.261Z,3.17
2022-08-06T01:55:56.678Z,3.00
2022-08-06T01:58:27.053Z,2.87
2022-08-06T02:00:58.210Z,3.90
2022-08-06T02:03:49.738Z,3.93
2022-08-06T02:06:29.445Z,4.70
2022-08-06T02:08:57.880Z,4.77
2022-08-06T02:12:02.359Z,4.90
2022-08-06T02:14:12.534Z,5.17
2022-08-06T02:16:42.658Z,4.63
2022-08-06T02:19:12.979Z,4.53
2022-08-06T02:21:42.822Z,5.33
2022-08-06T02:24:11.031Z,5.10
2022-08-06T02:26:39.487Z,3.97
2022-08-06T02:29:14.108Z,4.70
2022-08-06T02:31:50.537Z,5.10
2022-08-06T02:34:29.794Z,4.43
2022-08-06T02:37:22.726Z,4.80
2022-08-06T02:40:10.198Z,5.47
2022-08-06T02:42:48.331Z,5.50
2022-08-06T02:45:38.278Z,4.60
2022-08-06T02:48:22.177Z,4.17
2022-08-06T02:51:00.440Z,3.80
2022-08-06T02:53:37.334Z,3.60
2022-08-06T02:56:13.021Z,3.43
2022-08-06T02:58:45.151Z,3.53
2022-08-06T03:01:26.554Z,3.20
2022-08-06T03:03:59.117Z,3.33
2022-08-06T03:06:27.592Z,3.90
2022-08-06T03:08:56.137Z,4.10
2022-08-06T03:11:24.071Z,3.47
2022-08-06T03:13:52.002Z,3.47
2022-08-06T03:16:23.570Z,3.60
2022-08-06T03:19:56.276Z,3.70
2022-08-06T03:21:42.411Z,3.73
2022-08-06T03:24:18.280Z,3.63
2022-08-06T03:26:47.928Z,3.23
2022-08-06T03:29:15.383Z,3.30
2022-08-06T03:31:42.549Z,3.87
2022-08-06T03:34:11.889Z,3.90
2022-08-06T03:36:41.721Z,3.90
2022-08-06T03:39:09.873Z,4.40
2022-08-06T03:42:08.583Z,3.70
2022-08-06T03:44:30.187Z,3.43
2022-08-06T03:47:05.861Z,3.83
2022-08-06T03:49:40.860Z,3.90
2022-08-06T03:52:09.207Z,3.13
2022-08-06T03:54:44.020Z,3.83
2022-08-06T03:57:13.732Z,3.72
2022-08-06T03:59:59.024Z,3.65
2022-08-06T04:02:45.088Z,3.45
2022-08-06T04:05:22.782Z,3.55
2022-08-06T04:07:55.649Z,3.03
2022-08-06T04:10:34.885Z,3.20
2022-08-06T04:13:17.732Z,3.22
2022-08-06T04:15:49.835Z,3.55
2022-08-06T04:18:18.631Z,2.97
2022-08-06T04:20:47.226Z,2.92
2022-08-06T04:23:24.686Z,3.45
2022-08-06T04:26:07.335Z,2.50
2022-08-06T04:28:43.374Z,3.00
2022-08-06T04:31:30.661Z,3.63
2022-08-06T04:34:07.035Z,3.20
2022-08-06T04:36:39.117Z,2.78
2022-08-06T04:39:09.049Z,2.88
2022-08-06T04:41:41.820Z,3.33
2022-08-06T04:44:13.607Z,2.78
2022-08-06T04:46:40.987Z,3.25
2022-08-06T04:49:07.917Z,2.83
2022-08-06T04:52:42.767Z,3.15
2022-08-06T04:54:27.942Z,3.55
2022-08-06T04:56:56.812Z,3.35
2022-08-06T04:59:25.176Z,3.53
2022-08-06T05:02:00.676Z,3.00
2022-08-06T05:04:29.690Z,3.08
2022-08-06T05:07:10.677Z,2.69
2022-08-06T05:09:43.910Z,3.03
2022-08-06T05:12:22.953Z,3.13
2022-08-06T05:14:53.445Z,2.97
2022-08-06T05:17:21.957Z,3.53
2022-08-06T05:19:58.384Z,3.28
2022-08-06T05:22:52.411Z,3.10
2022-08-06T05:25:22.454Z,3.33
2022-08-06T05:28:10.531Z,3.57
2022-08-06T05:30:49.333Z,3.05
2022-08-06T05:33:26.654Z,3.25
2022-08-06T05:36:01.549Z,2.80
2022-08-06T05:38:35.749Z,3.28
2022-08-06T05:41:03.789Z,3.30
2022-08-06T05:43:59.405Z,3.22
2022-08-06T05:46:24.693Z,3.10
2022-08-06T05:48:55.193Z,3.08
2022-08-06T05:51:43.659Z,3.20
2022-08-06T05:54:16.456Z,3.65
2022-08-06T05:56:44.338Z,3.60
2022-08-06T05:59:38.467Z,3.42
2022-08-06T06:02:07.175Z,3.72
2022-08-06T06:04:34.049Z,3.55
2022-08-06T06:07:02.452Z,3.15
2022-08-06T06:09:56.430Z,3.27
2022-08-06T06:12:19.108Z,3.50
2022-08-06T06:14:49.748Z,2.88
2022-08-06T06:17:25.636Z,3.20
2022-08-06T06:20:11.117Z,2.80
2022-08-06T06:23:00.356Z,3.00
2022-08-06T06:25:35.489Z,3.10
2022-08-06T06:28:02.323Z,2.75
2022-08-06T06:30:40.516Z,2.85
2022-08-06T06:33:12.132Z,3.05
2022-08-06T06:35:49.417Z,2.60
2022-08-06T06:38:26.310Z,3.47
2022-08-06T06:41:19.838Z,3.65
2022-08-06T06:43:54.094Z,3.22
2022-08-06T06:46:39.026Z,3.15
2022-08-06T06:49:10.756Z,3.22
2022-08-06T06:52:03.133Z,3.22
2022-08-06T06:54:42.044Z,3.10
2022-08-06T06:57:12.340Z,2.90
2022-08-06T07:00:01.085Z,3.33
2022-08-06T07:02:29.651Z,3.28
2022-08-06T07:04:59.367Z,3.17
2022-08-06T07:07:26.888Z,2.92
2022-08-06T07:09:59.865Z,2.95
2022-08-06T07:12:30.971Z,3.55
2022-08-06T07:15:01.545Z,3.13
2022-08-06T07:17:45.584Z,2.97
2022-08-06T07:20:17.340Z,3.17
2022-08-06T07:24:04.009Z,2.88
2022-08-06T07:25:35.255Z,2.90
2022-08-06T07:28:07.877Z,3.22
2022-08-06T07:30:37.928Z,3.25
2022-08-06T07:33:07.586Z,3.70
2022-08-06T07:35:34.105Z,3.40
2022-08-06T07:38:07.197Z,3.22
2022-08-06T07:40:46.150Z,2.85
2022-08-06T07:43:25.366Z,2.80
2022-08-06T07:46:00.292Z,3.58
2022-08-06T07:48:32.498Z,2.90
2022-08-06T07:51:00.696Z,2.55
2022-08-06T07:53:52.368Z,2.88
2022-08-06T07:56:14.720Z,2.65
2022-08-06T07:58:46.000Z,2.92
2022-08-06T08:01:13.009Z,2.63
2022-08-06T08:04:03.135Z,2.70
2022-08-06T08:06:51.266Z,3.13
2022-08-06T08:09:19.787Z,3.13
2022-08-06T08:12:26.309Z,2.90
2022-08-06T08:14:51.209Z,2.92
2022-08-06T08:17:17.985Z,2.85
2022-08-06T08:20:15.228Z,2.47
2022-08-06T08:22:47.999Z,2.72
2022-08-06T08:25:21.396Z,3.00
2022-08-06T08:28:03.274Z,2.60
2022-08-06T08:30:38.562Z,2.97
2022-08-06T08:33:05.302Z,3.20
2022-08-06T08:35:38.621Z,2.83
2022-08-06T08:38:05.160Z,2.53
2022-08-06T08:40:35.880Z,2.67
2022-08-06T08:43:06.207Z,3.22
2022-08-06T08:45:35.919Z,2.75
2022-08-06T08:48:03.575Z,2.85
2022-08-06T08:50:32.322Z,3.15
2022-08-06T08:53:07.961Z,2.58
2022-08-06T08:57:10.618Z,3.10
2022-08-06T08:58:41.401Z,3.17
2022-08-06T09:01:51.221Z,3.03
2022-08-06T09:03:57.163Z,3.35
2022-08-06T09:06:28.792Z,2.53
2022-08-06T09:09:01.255Z,2.88
2022-08-06T09:12:05.166Z,3.40
2022-08-06T09:14:17.331Z,3.22
2022-08-06T09:16:50.691Z,3.10
2022-08-06T09:19:17.699Z,3.30
2022-08-06T09:21:47.058Z,2.60
2022-08-06T09:24:17.859Z,3.17
2022-08-06T09:27:46.099Z,2.72
2022-08-06T09:30:04.449Z,2.88
2022-08-06T09:32:55.241Z,3.00
2022-08-06T09:35:43.700Z,3.33
2022-08-06T09:38:12.054Z,2.78
2022-08-06T09:41:02.761Z,3.15
2022-08-06T09:44:01.870Z,2.55
2022-08-06T09:46:16.671Z,3.00
2022-08-06T09:49:48.721Z,3.08
2022-08-06T09:51:51.928Z,2.97
2022-08-06T09:54:24.719Z,3.03
2022-08-06T09:57:01.017Z,2.55
2022-08-06T09:59:27.616Z,2.65
2022-08-06T10:02:00.036Z,2.47
2022-08-06T10:04:36.420Z,2.95
2022-08-06T10:07:08.184Z,2.13
2022-08-06T10:09:41.893Z,2.67
2022-08-06T10:12:18.271Z,2.47
2022-08-06T10:14:44.837Z,2.67
2022-08-06T10:17:16.788Z,3.20
2022-08-06T10:19:52.467Z,2.40
2022-08-06T10:22:21.674Z,2.88
2022-08-06T10:24:52.974Z,2.80
2022-08-06T10:27:23.834Z,2.65
2022-08-06T10:29:55.722Z,2.80
2022-08-06T10:32:32.605Z,2.30
2022-08-06T10:35:04.433Z,2.70
2022-08-06T10:37:57.837Z,2.45
2022-08-06T10:40:30.932Z,2.80
2022-08-06T10:42:57.907Z,2.83
2022-08-06T10:45:26.924Z,2.72
2022-08-06T10:48:59.613Z,2.70
2022-08-06T10:50:50.937Z,2.83
2022-08-06T10:54:00.992Z,3.10
2022-08-06T10:56:09.863Z,2.35
2022-08-06T10:58:41.197Z,2.80
2022-08-06T11:01:09.664Z,2.80
2022-08-06T11:03:51.911Z,2.75
2022-08-06T11:06:28.001Z,3.15
2022-08-06T11:09:01.105Z,2.70
2022-08-06T11:12:05.816Z,2.70
2022-08-06T11:14:37.876Z,2.30
2022-08-06T11:17:08.294Z,2.63
2022-08-06T11:19:46.698Z,2.63
2022-08-06T11:22:37.195Z,2.50
2022-08-06T11:25:25.382Z,2.97
2022-08-06T11:27:59.282Z,2.88
2022-08-06T11:30:46.416Z,2.38
2022-08-06T11:33:15.614Z,2.72
2022-08-06T11:35:48.836Z,2.42
2022-08-06T11:38:37.858Z,2.53
2022-08-06T11:41:09.553Z,3.03
2022-08-06T11:44:03.440Z,2.75
2022-08-06T11:46:31.268Z,2.47
2022-08-06T11:49:03.670Z,2.50
2022-08-06T11:51:47.822Z,2.30
2022-08-06T11:54:24.242Z,2.35
2022-08-06T11:56:57.865Z,2.70
2022-08-06T11:59:26.735Z,2.67
2022-08-06T12:01:54.100Z,2.63
2022-08-06T12:04:36.194Z,2.80
2022-08-06T12:07:33.242Z,2.60
2022-08-06T12:10:02.825Z,2.42
2022-08-06T12:12:39.464Z,2.50
2022-08-06T12:15:14.655Z,2.53
2022-08-06T12:18:20.779Z,2.83
2022-08-06T12:20:53.974Z,3.00
2022-08-06T12:23:23.690Z,2.60
2022-08-06T12:26:10.347Z,2.58
2022-08-06T12:28:37.838Z,2.42
2022-08-06T12:31:05.937Z,2.40
2022-08-06T12:33:52.005Z,2.53
2022-08-06T12:36:32.387Z,2.50
2022-08-06T12:39:04.058Z,2.80
2022-08-06T12:41:46.448Z,2.30
2022-08-06T12:44:14.375Z,2.47
2022-08-06T12:46:41.565Z,2.38
2022-08-06T12:49:10.669Z,2.22
2022-08-06T12:51:37.399Z,2.33
2022-08-06T12:54:05.557Z,2.45
2022-08-06T12:56:37.449Z,2.97
2022-08-06T12:59:06.277Z,2.63
2022-08-06T13:02:10.008Z,2.65
2022-08-06T13:04:31.734Z,2.92
2022-08-06T13:06:58.944Z,2.88
2022-08-06T13:09:34.668Z,2.50
2022-08-06T13:12:45.110Z,2.70
2022-08-06T13:15:18.434Z,2.78
2022-08-06T13:18:03.586Z,2.20
2022-08-06T13:20:41.373Z,2.25
2022-08-06T13:23:10.334Z,2.40
2022-08-06T13:25:52.918Z,2.58
2022-08-06T13:28:22.379Z,2.33
2022-08-06T13:30:57.350Z,2.13
2022-08-06T13:33:25.430Z,2.20
2022-08-06T13:35:52.930Z,2.20
2022-08-06T13:38:29.570Z,2.30
2022-08-06T13:41:03.308Z,2.78
2022-08-06T13:43:39.491Z,2.75
2022-08-06T13:46:15.198Z,2.55
2022-08-06T13:48:47.306Z,2.78
2022-08-06T13:51:22.401Z,2.15
2022-08-06T13:53:57.101Z,2.28
2022-08-06T13:56:29.339Z,2.05
2022-08-06T13:58:59.723Z,2.88
2022-08-06T14:01:35.124Z,2.45
2022-08-06T14:04:13.804Z,2.75
2022-08-06T14:06:41.294Z,2.50
2022-08-06T14:09:19.340Z,2.63
2022-08-06T14:11:54.655Z,2.90
2022-08-06T14:14:23.557Z,2.72
2022-08-06T14:16:52.955Z,2.28
2022-08-06T14:20:17.012Z,2.25
2022-08-06T14:22:06.988Z,2.30
2022-08-06T14:24:39.573Z,2.40
2022-08-06T14:27:14.870Z,2.15
2022-08-06T14:30:27.930Z,2.47
2022-08-06T14:32:30.081Z,2.25
2022-08-06T14:34:57.544Z,2.70
2022-08-06T14:37:32.749Z,2.58
2022-08-06T14:40:11.947Z,2.40
2022-08-06T14:42:57.458Z,2.53
2022-08-06T14:45:24.571Z,2.33
2022-08-06T14:48:01.148Z,2.00
2022-08-06T14:50:37.418Z,2.85
2022-08-06T14:53:07.888Z,3.03
2022-08-06T14:55:34.369Z,2.50
2022-08-06T14:58:04.873Z,2.55
2022-08-06T15:00:37.180Z,2.60
2022-08-06T15:03:07.984Z,2.63
2022-08-06T15:06:00.377Z,2.76
2022-08-06T15:08:27.212Z,2.40
2022-08-06T15:10:53.685Z,2.40
2022-08-06T15:13:20.975Z,2.35
2022-08-06T15:16:02.706Z,2.95
2022-08-06T15:18:54.106Z,2.60
2022-08-06T15:21:16.543Z,2.80
2022-08-06T15:23:54.047Z,2.50
2022-08-06T15:26:46.988Z,3.22
2022-08-06T15:29:10.421Z,2.80
2022-08-06T15:31:37.839Z,3.05
2022-08-06T15:34:07.023Z,2.72
2022-08-06T15:36:36.102Z,2.58
2022-08-06T15:39:09.326Z,2.78
2022-08-06T15:41:36.693Z,3.00
2022-08-06T15:44:10.313Z,2.95
2022-08-06T15:46:37.162Z,3.33
2022-08-06T15:49:11.675Z,2.97
2022-08-06T15:51:38.552Z,2.63
2022-08-06T15:54:05.106Z,2.33
2022-08-06T15:56:33.685Z,2.78
2022-08-06T15:59:11.991Z,3.08
2022-08-06T16:01:52.798Z,2.30
2022-08-06T16:04:26.462Z,3.47
2022-08-06T16:06:54.989Z,3.05
2022-08-06T16:09:27.933Z,3.38
2022-08-06T16:11:55.991Z,3.25
2022-08-06T16:14:32.574Z,2.97
2022-08-06T16:17:02.789Z,3.08
2022-08-06T16:19:29.719Z,2.60
2022-08-06T16:22:00.687Z,3.50
2022-08-06T16:24:27.218Z,3.55
2022-08-06T16:26:57.628Z,3.78
2022-08-06T16:29:25.285Z,3.20
2022-08-06T16:31:54.760Z,2.90
2022-08-06T16:34:24.998Z,3.10
2022-08-06T16:36:56.407Z,2.97
2022-08-06T16:39:35.777Z,3.70
2022-08-06T16:42:04.213Z,3.05
2022-08-06T16:44:34.614Z,2.53
2022-08-06T16:47:04.987Z,3.70
2022-08-06T16:50:18.041Z,3.42
2022-08-06T16:52:44.861Z,2.92
2022-08-06T16:55:24.416Z,3.67
2022-08-06T16:57:57.711Z,3.13
2022-08-06T17:00:59.495Z,3.10
2022-08-06T17:03:14.791Z,4.32
2022-08-06T17:05:44.918Z,3.65
2022-08-06T17:08:16.911Z,3.42
2022-08-06T17:10:44.046Z,4.93
2022-08-06T17:13:10.542Z,3.60
2022-08-06T17:15:37.641Z,3.65
2022-08-06T17:18:04.951Z,3.53
2022-08-06T17:20:31.529Z,3.45
2022-08-06T17:23:00.133Z,2.97
2022-08-06T17:25:51.254Z,2.97
2022-08-06T17:28:14.288Z,3.10
2022-08-06T17:30:40.827Z,3.45
2022-08-06T17:33:08.418Z,3.05
2022-08-06T17:36:30.045Z,3.78
2022-08-06T17:38:23.937Z,3.53
2022-08-06T17:40:51.730Z,3.35
2022-08-06T17:43:23.145Z,3.10
2022-08-06T17:46:26.778Z,3.70
2022-08-06T17:48:53.605Z,3.75
2022-08-06T17:51:21.619Z,4.10
2022-08-06T17:53:53.030Z,4.30
2022-08-06T17:56:30.592Z,5.20
2022-08-06T17:59:06.158Z,5.22
2022-08-06T18:01:44.913Z,3.65
2022-08-06T18:04:30.027Z,3.70
2022-08-06T18:06:57.950Z,2.97
2022-08-06T18:10:09.756Z,3.15
2022-08-06T18:12:12.429Z,2.95
2022-08-06T18:14:39.497Z,2.63
2022-08-06T18:17:07.793Z,3.38
2022-08-06T18:19:43.500Z,3.88
2022-08-06T18:22:12.100Z,3.05
2022-08-06T18:24:50.619Z,3.00
2022-08-06T18:27:54.046Z,3.17
2022-08-06T18:30:04.996Z,2.83
2022-08-06T18:32:32.945Z,3.13
2022-08-06T18:35:04.333Z,2.67
2022-08-06T18:38:00.394Z,3.50
2022-08-06T18:40:38.466Z,7.53
2022-08-06T18:43:06.205Z,5.57
2022-08-06T18:45:36.690Z,6.10
2022-08-06T18:48:04.130Z,4.88
2022-08-06T18:50:32.955Z,5.65
2022-08-06T18:53:00.971Z,4.22
2022-08-06T18:55:39.848Z,4.65
2022-08-06T18:58:14.957Z,4.05
2022-08-06T19:00:42.125Z,5.15
2022-08-06T19:03:18.306Z,4.30
2022-08-06T19:05:50.524Z,5.05
2022-08-06T19:08:17.726Z,4.70
2022-08-06T19:10:58.250Z,4.30
2022-08-06T19:14:17.534Z,4.57
2022-08-06T19:16:14.225Z,4.47
2022-08-06T19:18:50.854Z,4.32
2022-08-06T19:21:18.078Z,4.20
2022-08-06T19:24:03.752Z,4.32
2022-08-06T19:26:31.911Z,4.63
2022-08-06T19:29:02.234Z,3.80
2022-08-06T19:31:42.452Z,3.42
2022-08-06T19:34:14.670Z,3.45
2022-08-06T19:36:42.922Z,3.15
2022-08-06T19:39:52.059Z,3.65
2022-08-06T19:42:01.157Z,3.88
2022-08-06T19:44:35.881Z,4.45
2022-08-06T19:47:15.432Z,3.78
2022-08-06T19:49:52.257Z,4.28
2022-08-06T19:52:19.738Z,3.90
2022-08-06T19:54:50.162Z,4.60
2022-08-06T19:57:16.715Z,4.15
2022-08-06T20:00:50.639Z,4.05
2022-08-06T20:02:30.635Z,5.32
2022-08-06T20:04:58.059Z,5.43
2022-08-06T20:07:28.180Z,4.25
2022-08-06T20:10:01.374Z,4.45
2022-08-06T20:12:30.003Z,4.53
2022-08-06T20:15:09.789Z,4.14
2022-08-06T20:17:48.711Z,4.50
2022-08-06T20:20:17.575Z,4.80
2022-08-06T20:22:45.095Z,5.13
2022-08-06T20:25:18.735Z,3.83
2022-08-06T20:29:08.295Z,4.28
2022-08-06T20:30:44.578Z,4.00
2022-08-06T20:33:19.405Z,3.67
2022-08-06T20:35:58.302Z,4.97
2022-08-06T20:38:40.197Z,3.75
2022-08-06T20:41:56.840Z,3.95
2022-08-06T20:44:06.358Z,4.38
2022-08-06T20:49:47.963Z,4.18
2022-08-06T20:52:08.336Z,3.83
2022-08-06T20:54:34.838Z,4.45
2022-08-06T20:57:05.209Z,4.10
2022-08-06T20:59:33.522Z,4.05
2022-08-06T21:02:04.056Z,4.10
2022-08-06T21:05:12.605Z,3.50
2022-08-06T21:07:31.384Z,4.82
2022-08-06T21:10:05.036Z,4.05
2022-08-06T21:12:44.789Z,4.78
2022-08-06T21:15:11.868Z,5.05
2022-08-06T21:17:59.377Z,4.70
2022-08-06T21:20:25.939Z,4.43
2022-08-06T21:22:52.669Z,4.72
2022-08-06T21:25:19.554Z,5.82
2022-08-06T21:27:48.504Z,6.35
2022-08-06T21:30:16.816Z,6.32
2022-08-06T21:32:58.188Z,6.35
2022-08-06T21:35:25.145Z,6.45
2022-08-06T21:38:00.176Z,6.65
2022-08-06T21:40:29.030Z,6.95
2022-08-06T21:42:55.843Z,7.40
2022-08-06T21:45:23.399Z,6.63
2022-08-06T21:47:50.703Z,6.03
2022-08-06T21:50:25.247Z,5.45
2022-08-06T21:52:53.013Z,5.75
2022-08-06T21:56:37.096Z,4.93
2022-08-06T21:58:06.179Z,5.63
2022-08-06T22:00:36.955Z,5.47
2022-08-06T22:03:06.883Z,4.97
2022-08-06T22:06:21.288Z,5.10
2022-08-06T22:08:27.552Z,5.30
2022-08-06T22:10:54.148Z,5.17
2022-08-06T22:13:42.193Z,5.80
2022-08-06T22:16:32.936Z,6.13
2022-08-06T22:19:00.511Z,6.30
2022-08-06T22:21:41.713Z,5.32
2022-08-06T22:24:14.690Z,6.43
2022-08-06T22:26:42.149Z,6.00
2022-08-06T22:29:18.076Z,6.10
2022-08-06T22:31:57.474Z,6.57
2022-08-06T22:34:36.690Z,5.70
2022-08-06T22:37:04.830Z,5.00
2022-08-06T22:39:34.663Z,5.70
2022-08-06T22:42:07.621Z,6.23
2022-08-06T22:44:51.806Z,5.47
2022-08-06T22:47:21.408Z,5.47
2022-08-06T22:49:59.274Z,5.50
2022-08-06T22:52:51.408Z,5.50
2022-08-06T22:55:18.457Z,6.30
2022-08-06T22:58:47.590Z,5.50
2022-08-06T23:00:35.472Z,5.30
2022-08-06T23:03:02.788Z,5.10
2022-08-06T23:05:30.837Z,6.07
2022-08-06T23:07:59.802Z,4.57
2022-08-06T23:10:26.575Z,4.67
2022-08-06T23:12:54.460Z,4.87
2022-08-06T23:15:39.128Z,4.87
2022-08-06T23:18:08.417Z,4.60
2022-08-06T23:20:36.511Z,5.27
2022-08-06T23:23:04.193Z,4.47
2022-08-06T23:26:00.806Z,4.70
2022-08-06T23:28:17.873Z,4.77
2022-08-06T23:30:44.497Z,4.37
2022-08-06T23:33:10.958Z,4.57
2022-08-06T23:35:38.161Z,4.45
2022-08-06T23:38:31.355Z,4.80
2022-08-06T23:40:55.353Z,4.53
2022-08-06T23:43:22.575Z,5.37
2022-08-06T23:45:49.513Z,4.80
2022-08-06T23:48:17.057Z,5.00
2022-08-06T23:50:52.574Z,5.40
2022-08-06T23:54:06.773Z,4.87
2022-08-06T23:56:07.008Z,4.57
2022-08-06T23:58:36.303Z,4.70
